createdAt,value
2018-08-03T00:01:25.488Z,79.89
2018-08-03T00:03:54.043Z,80.30
2018-08-03T00:06:22.500Z,81.09
2018-08-03T00:08:51.365Z,82.71
2018-08-03T00:11:19.846Z,82.58
2018-08-03T00:13:49.107Z,82.48
2018-08-03T00:16:17.650Z,83.62
2018-08-03T00:18:46.257Z,83.40
2018-08-03T00:21:15.167Z,82.44
2018-08-03T00:23:44.263Z,81.96
2018-08-03T00:26:14.364Z,81.05
2018-08-03T00:28:43.273Z,81.22
2018-08-03T00:31:11.875Z,82.10
2018-08-03T00:33:41.188Z,82.63
2018-08-03T00:36:10.543Z,82.04
2018-08-03T00:38:39.453Z,81.27
2018-08-03T00:41:08.491Z,81.27
2018-08-03T00:43:37.081Z,82.76
2018-08-03T00:46:05.764Z,81.86
2018-08-03T00:48:34.656Z,81.47
2018-08-03T00:51:03.683Z,82.72
2018-08-03T00:53:32.452Z,80.71
2018-08-03T00:56:01.156Z,81.91
2018-08-03T00:58:29.952Z,82.07
2018-08-03T01:00:58.714Z,81.54
2018-08-03T01:03:27.403Z,81.73
2018-08-03T01:05:56.041Z,81.65
2018-08-03T01:08:24.997Z,81.41
2018-08-03T01:10:54.910Z,80.77
2018-08-03T01:13:24.996Z,81.82
2018-08-03T01:15:54.435Z,81.61
2018-08-03T01:18:23.125Z,82.37
2018-08-03T01:20:52.259Z,82.89
2018-08-03T01:23:21.890Z,83.29
2018-08-03T01:25:50.632Z,82.09
2018-08-03T01:28:19.913Z,81.76
2018-08-03T01:30:48.711Z,81.70
2018-08-03T01:33:17.792Z,82.30
2018-08-03T01:35:46.507Z,80.90
2018-08-03T01:38:15.401Z,81.61
2018-08-03T01:40:44.643Z,80.81
2018-08-03T01:43:13.713Z,82.86
2018-08-03T01:45:42.557Z,83.08
2018-08-03T01:48:11.552Z,83.44
2018-08-03T01:50:40.415Z,83.29
2018-08-03T01:53:09.344Z,82.22
2018-08-03T01:55:38.087Z,82.42
2018-08-03T01:58:07.143Z,81.52
2018-08-03T02:00:36.056Z,81.39
2018-08-03T02:03:04.822Z,80.89
2018-08-03T02:05:33.582Z,82.94
2018-08-03T02:08:02.851Z,82.18
2018-08-03T02:10:31.620Z,82.67
2018-08-03T02:13:00.348Z,81.53
2018-08-03T02:15:29.031Z,81.76
2018-08-03T02:17:57.868Z,81.85
2018-08-03T02:20:26.559Z,82.00
2018-08-03T02:22:55.502Z,82.72
2018-08-03T02:25:24.411Z,82.91
2018-08-03T02:27:54.259Z,83.48
2018-08-03T02:30:23.150Z,83.90
2018-08-03T02:32:51.817Z,83.08
2018-08-03T02:35:20.363Z,82.86
2018-08-03T02:37:49.924Z,83.71
2018-08-03T02:40:19.731Z,83.63
2018-08-03T02:42:48.485Z,83.76
2018-08-03T02:45:17.552Z,83.19
2018-08-03T02:47:47.580Z,83.63
2018-08-03T02:50:16.209Z,83.26
2018-08-03T02:52:45.020Z,83.64
2018-08-03T02:55:13.974Z,82.17
2018-08-03T02:57:42.906Z,83.02
2018-08-03T03:00:12.088Z,81.98
2018-08-03T03:02:43.672Z,83.97
2018-08-03T03:05:12.376Z,82.90
2018-08-03T03:07:42.931Z,82.59
2018-08-03T03:10:11.355Z,83.34
2018-08-03T03:12:39.863Z,83.91
2018-08-03T03:15:09.083Z,82.91
2018-08-03T03:17:37.739Z,83.37
2018-08-03T03:20:07.768Z,83.11
2018-08-03T03:22:36.433Z,84.12
2018-08-03T03:25:12.182Z,84.65
2018-08-03T03:27:43.870Z,84.61
2018-08-03T03:30:12.835Z,86.83
2018-08-03T03:32:42.109Z,87.00
2018-08-03T03:35:10.734Z,86.38
2018-08-03T03:37:39.245Z,85.14
2018-08-03T03:40:07.759Z,84.95
2018-08-03T03:42:36.508Z,85.46
2018-08-03T03:45:05.348Z,84.44
2018-08-03T03:47:34.651Z,84.66
2018-08-03T03:50:07.021Z,85.29
2018-08-03T03:52:36.348Z,84.36
2018-08-03T03:55:12.336Z,83.57
2018-08-03T03:57:45.086Z,84.41
2018-08-03T04:00:16.386Z,84.45
2018-08-03T04:02:45.118Z,83.83
2018-08-03T04:05:15.253Z,84.23
2018-08-03T04:07:43.973Z,84.64
2018-08-03T04:10:14.726Z,84.73
2018-08-03T04:12:43.653Z,84.46
2018-08-03T04:15:12.458Z,84.48
2018-08-03T04:17:45.121Z,83.60
2018-08-03T04:20:16.516Z,83.96
2018-08-03T04:22:45.129Z,83.25
2018-08-03T04:25:14.561Z,83.62
2018-08-03T04:27:43.092Z,83.33
2018-08-03T04:30:11.811Z,83.67
2018-08-03T04:32:40.619Z,82.55
2018-08-03T04:35:09.184Z,82.61
2018-08-03T04:37:38.337Z,82.43
2018-08-03T04:40:06.979Z,82.38
2018-08-03T04:42:36.274Z,82.28
2018-08-03T04:45:05.276Z,82.00
2018-08-03T04:47:33.825Z,81.66
2018-08-03T04:50:03.573Z,81.23
2018-08-03T04:52:32.135Z,81.31
2018-08-03T04:55:00.668Z,80.64
2018-08-03T04:57:29.256Z,80.54
2018-08-03T04:59:57.829Z,79.73
2018-08-03T05:02:26.733Z,78.95
2018-08-03T05:04:55.319Z,79.09
2018-08-03T05:07:23.879Z,77.74
2018-08-03T05:09:52.659Z,76.88
2018-08-03T05:12:22.508Z,75.66
2018-08-03T05:14:52.376Z,75.26
2018-08-03T05:17:21.058Z,75.21
2018-08-03T05:19:53.788Z,75.28
2018-08-03T05:22:23.039Z,74.08
2018-08-03T05:24:51.869Z,73.12
2018-08-03T05:27:20.392Z,72.34
2018-08-03T05:29:50.228Z,72.45
2018-08-03T05:32:19.211Z,69.57
2018-08-03T05:34:47.793Z,69.72
2018-08-03T05:37:16.351Z,68.34
2018-08-03T05:39:45.381Z,68.42
2018-08-03T05:42:15.486Z,67.17
2018-08-03T05:44:44.290Z,65.82
2018-08-03T05:47:14.615Z,63.79
2018-08-03T05:49:44.270Z,63.08
2018-08-03T05:52:15.687Z,61.44
2018-08-03T05:54:44.364Z,61.42
2018-08-03T05:57:15.377Z,63.31
2018-08-03T05:59:45.181Z,64.93
2018-08-03T06:02:15.132Z,63.65
2018-08-03T06:04:44.728Z,63.70
2018-08-03T06:07:13.219Z,64.36
2018-08-03T06:09:41.784Z,63.38
2018-08-03T06:12:11.335Z,63.32
2018-08-03T06:14:40.835Z,57.75
2018-08-03T06:17:10.601Z,54.24
2018-08-03T06:19:40.320Z,53.78
2018-08-03T06:22:09.131Z,52.88
2018-08-03T06:24:37.862Z,52.84
2018-08-03T06:27:07.536Z,52.56
2018-08-03T06:29:38.236Z,54.35
2018-08-03T06:32:10.427Z,54.75
2018-08-03T06:34:40.426Z,56.41
2018-08-03T06:37:09.203Z,53.47
2018-08-03T06:39:39.212Z,54.29
2018-08-03T06:42:11.448Z,53.82
2018-08-03T06:44:41.042Z,57.34
2018-08-03T06:47:10.843Z,55.07
2018-08-03T06:49:42.647Z,55.71
2018-08-03T06:52:13.586Z,55.46
2018-08-03T06:54:44.637Z,56.01
2018-08-03T06:57:13.619Z,53.87
2018-08-03T06:59:43.136Z,53.45
2018-08-03T07:02:13.979Z,55.26
2018-08-03T07:04:44.391Z,52.54
2018-08-03T07:07:14.409Z,54.44
2018-08-03T07:09:45.253Z,51.64
2018-08-03T07:12:15.927Z,53.78
2018-08-03T07:14:46.228Z,53.72
2018-08-03T07:17:15.097Z,53.09
2018-08-03T07:19:45.009Z,50.27
2018-08-03T07:22:14.189Z,49.12
2018-08-03T07:24:43.604Z,53.38
2018-08-03T07:27:12.935Z,50.87
2018-08-03T07:29:41.828Z,50.42
2018-08-03T07:32:13.030Z,50.99
2018-08-03T07:34:41.798Z,49.21
2018-08-03T07:37:11.357Z,47.59
2018-08-03T07:39:39.936Z,46.92
2018-08-03T07:42:09.404Z,44.84
2018-08-03T07:44:40.600Z,44.08
2018-08-03T07:47:11.076Z,45.01
2018-08-03T07:49:40.911Z,44.64
2018-08-03T07:52:11.587Z,43.02
2018-08-03T07:58:09.494Z,47.49
2018-08-03T08:01:36.104Z,46.52
2018-08-03T08:04:05.037Z,44.58
2018-08-03T08:06:33.701Z,42.46
2018-08-03T08:09:04.778Z,45.39
2018-08-03T08:11:33.558Z,43.70
2018-08-03T08:14:02.278Z,40.98
2018-08-03T08:16:32.316Z,40.40
2018-08-03T08:19:02.620Z,40.92
2018-08-03T08:21:31.976Z,42.10
2018-08-03T08:24:01.223Z,39.29
2018-08-03T08:26:29.929Z,40.85
2018-08-03T08:28:58.856Z,41.84
2018-08-03T08:31:27.524Z,38.52
2018-08-03T08:33:56.730Z,38.08
2018-08-03T08:36:25.506Z,36.27
2018-08-03T08:38:54.441Z,36.36
2018-08-03T08:41:24.118Z,36.88
2018-08-03T08:43:54.212Z,36.15
2018-08-03T08:46:23.966Z,38.46
2018-08-03T08:48:55.674Z,36.53
2018-08-03T08:51:27.721Z,36.92
2018-08-03T08:53:56.479Z,36.94
2018-08-03T08:56:25.264Z,35.44
2018-08-03T08:58:54.092Z,35.91
2018-08-03T09:01:22.700Z,37.22
2018-08-03T09:03:51.141Z,35.96
2018-08-03T09:06:19.872Z,35.51
2018-08-03T09:08:49.405Z,35.09
2018-08-03T09:11:19.217Z,37.79
2018-08-03T09:13:50.242Z,36.28
2018-08-03T09:16:19.491Z,36.87
2018-08-03T09:18:48.677Z,35.56
2018-08-03T09:21:17.791Z,35.39
2018-08-03T09:23:49.061Z,35.49
2018-08-03T09:26:18.908Z,35.14
2018-08-03T09:28:47.451Z,35.12
2018-08-03T09:31:16.184Z,36.60
2018-08-03T09:33:44.753Z,35.30
2018-08-03T09:36:13.313Z,39.29
2018-08-03T09:38:42.364Z,36.68
2018-08-03T09:41:17.715Z,36.01
2018-08-03T09:43:47.103Z,35.04
2018-08-03T09:46:15.653Z,35.01
2018-08-03T09:48:44.386Z,38.02
2018-08-03T09:51:13.111Z,36.25
2018-08-03T09:53:42.959Z,35.91
2018-08-03T09:56:12.189Z,34.33
2018-08-03T09:58:41.813Z,33.91
2018-08-03T10:01:10.524Z,34.42
2018-08-03T10:03:41.531Z,34.41
2018-08-03T10:06:10.404Z,33.50
2018-08-03T10:08:39.526Z,33.39
2018-08-03T10:11:09.562Z,34.50
2018-08-03T10:13:38.319Z,36.32
2018-08-03T10:16:06.917Z,39.70
2018-08-03T10:18:35.791Z,35.81
2018-08-03T10:21:05.089Z,33.83
2018-08-03T10:23:35.373Z,36.44
2018-08-03T10:26:04.759Z,39.22
2018-08-03T10:28:34.091Z,39.02
2018-08-03T10:31:02.625Z,36.24
2018-08-03T10:33:31.385Z,34.59
2018-08-03T10:36:01.695Z,35.44
2018-08-03T10:38:31.237Z,37.82
2018-08-03T10:40:59.869Z,37.46
2018-08-03T10:43:28.493Z,34.32
2018-08-03T10:45:57.008Z,33.45
2018-08-03T10:48:25.761Z,31.50
2018-08-03T10:50:54.384Z,31.49
2018-08-03T10:53:23.158Z,31.10
2018-08-03T10:55:52.538Z,31.78
2018-08-03T10:58:21.912Z,34.80
2018-08-03T11:00:50.995Z,33.26
2018-08-03T11:03:19.880Z,33.38
2018-08-03T11:05:49.017Z,35.02
2018-08-03T11:08:18.572Z,32.32
2018-08-03T11:10:48.947Z,30.54
2018-08-03T11:13:18.088Z,28.29
2018-08-03T11:15:47.690Z,28.33
2018-08-03T11:18:16.894Z,28.23
2018-08-03T11:20:45.721Z,27.93
2018-08-03T11:23:14.504Z,27.79
2018-08-03T11:25:43.243Z,30.32
2018-08-03T11:28:12.484Z,28.46
2018-08-03T11:30:42.317Z,30.75
2018-08-03T11:33:11.450Z,28.06
2018-08-03T11:35:40.791Z,26.63
2018-08-03T11:38:09.828Z,28.41
2018-08-03T11:40:39.074Z,29.45
2018-08-03T11:43:08.088Z,30.35
2018-08-03T11:45:37.398Z,28.18
2018-08-03T11:48:07.113Z,28.21
2018-08-03T11:50:37.023Z,28.45
2018-08-03T11:53:06.195Z,29.92
2018-08-03T11:55:37.664Z,28.87
2018-08-03T11:58:06.696Z,28.13
2018-08-03T12:00:36.030Z,27.15
2018-08-03T12:03:05.713Z,25.89
2018-08-03T12:05:38.424Z,26.49
2018-08-03T12:08:08.356Z,25.69
2018-08-03T12:10:37.285Z,24.83
2018-08-03T12:13:06.546Z,26.38
2018-08-03T12:15:35.957Z,27.66
2018-08-03T12:18:05.245Z,30.84
2018-08-03T12:20:34.896Z,31.13
2018-08-03T12:23:04.047Z,30.27
2018-08-03T12:25:33.702Z,30.19
2018-08-03T12:28:03.757Z,29.40
2018-08-03T12:30:32.427Z,28.52
2018-08-03T12:33:01.399Z,29.56
2018-08-03T12:35:30.361Z,27.39
2018-08-03T12:37:59.620Z,26.48
2018-08-03T12:40:28.678Z,27.57
2018-08-03T12:42:57.321Z,27.86
2018-08-03T12:45:33.837Z,25.61
2018-08-03T12:47:55.145Z,29.03
2018-08-03T12:50:23.873Z,26.65
2018-08-03T12:52:52.408Z,29.06
2018-08-03T12:55:21.071Z,27.01
2018-08-03T12:57:50.529Z,27.37
2018-08-03T13:00:19.735Z,25.88
2018-08-03T13:02:48.419Z,25.67
2018-08-03T13:05:16.968Z,25.42
2018-08-03T13:07:47.525Z,25.30
2018-08-03T13:10:17.223Z,25.53
2018-08-03T13:12:46.377Z,25.16
2018-08-03T13:15:14.956Z,27.55
2018-08-03T13:17:44.474Z,29.68
2018-08-03T13:20:13.709Z,28.80
2018-08-03T13:22:42.378Z,29.67
2018-08-03T13:25:11.342Z,29.78
2018-08-03T13:27:40.768Z,28.92
2018-08-03T13:30:09.312Z,29.14
2018-08-03T13:32:39.068Z,28.78
2018-08-03T13:35:08.655Z,28.55
2018-08-03T13:37:37.364Z,28.20
2018-08-03T13:40:06.141Z,25.56
2018-08-03T13:42:34.714Z,26.67
2018-08-03T13:45:03.332Z,26.78
2018-08-03T13:47:32.743Z,26.75
2018-08-03T13:50:02.331Z,26.28
2018-08-03T13:52:31.132Z,26.65
2018-08-03T13:54:59.794Z,27.10
2018-08-03T13:57:28.957Z,27.09
2018-08-03T13:59:59.384Z,25.53
2018-08-03T14:02:29.067Z,26.66
2018-08-03T14:04:58.191Z,26.58
2018-08-03T14:07:27.810Z,26.29
2018-08-03T14:09:57.439Z,28.56
2018-08-03T14:12:26.555Z,29.48
2018-08-03T14:14:55.298Z,28.95
2018-08-03T14:17:23.861Z,29.76
2018-08-03T14:19:53.984Z,28.72
2018-08-03T14:22:22.674Z,28.92
2018-08-03T14:24:51.755Z,28.65
2018-08-03T14:27:20.682Z,29.01
2018-08-03T14:29:50.924Z,28.59
2018-08-03T14:32:20.638Z,28.47
2018-08-03T14:34:51.087Z,27.40
2018-08-03T14:37:19.735Z,27.84
2018-08-03T14:39:49.242Z,28.22
2018-08-03T14:42:17.947Z,27.84
2018-08-03T14:44:47.497Z,27.00
2018-08-03T14:47:16.144Z,27.52
2018-08-03T14:49:45.355Z,27.91
2018-08-03T14:52:13.900Z,28.26
2018-08-03T14:54:42.721Z,28.12
2018-08-03T14:57:11.470Z,28.39
2018-08-03T14:59:41.177Z,28.56
2018-08-03T15:02:10.433Z,28.97
2018-08-03T15:04:39.569Z,29.76
2018-08-03T15:07:08.505Z,28.67
2018-08-03T15:09:37.407Z,29.22
2018-08-03T15:12:06.619Z,28.99
2018-08-03T15:14:35.805Z,30.01
2018-08-03T15:17:05.196Z,29.81
2018-08-03T15:19:34.584Z,29.38
2018-08-03T15:22:03.590Z,29.71
2018-08-03T15:24:33.084Z,28.71
2018-08-03T15:27:02.952Z,29.24
2018-08-03T15:29:32.262Z,29.18
2018-08-03T15:32:04.923Z,29.26
2018-08-03T15:34:34.177Z,29.00
2018-08-03T15:37:03.390Z,28.03
2018-08-03T15:39:32.620Z,28.40
2018-08-03T15:42:01.714Z,28.68
2018-08-03T15:44:30.924Z,28.77
2018-08-03T15:47:00.749Z,28.90
2018-08-03T15:49:30.123Z,29.15
2018-08-03T15:51:59.405Z,28.60
2018-08-03T15:54:29.024Z,29.34
2018-08-03T15:56:57.716Z,28.27
2018-08-03T15:59:26.982Z,28.83
2018-08-03T16:01:58.674Z,28.05
2018-08-03T16:04:27.298Z,29.61
2018-08-03T16:06:56.455Z,28.58
2018-08-03T16:09:25.748Z,28.93
2018-08-03T16:11:55.052Z,28.80
2018-08-03T16:14:24.037Z,29.68
2018-08-03T16:16:53.309Z,29.74
2018-08-03T16:19:22.212Z,28.52
2018-08-03T16:21:51.531Z,28.58
2018-08-03T16:24:20.666Z,29.99
2018-08-03T16:26:49.831Z,29.21
2018-08-03T16:29:18.922Z,28.08
2018-08-03T16:31:48.174Z,28.36
2018-08-03T16:34:16.821Z,28.42
2018-08-03T16:36:45.844Z,28.51
2018-08-03T16:39:14.675Z,29.07
2018-08-03T16:41:43.690Z,27.95
2018-08-03T16:44:12.401Z,28.41
2018-08-03T16:46:41.161Z,29.09
2018-08-03T16:49:09.898Z,29.18
2018-08-03T16:51:38.520Z,27.28
2018-08-03T16:54:07.123Z,28.10
2018-08-03T16:56:36.504Z,28.32
2018-08-03T16:59:05.012Z,27.47
2018-08-03T17:01:35.665Z,27.41
2018-08-03T17:04:05.189Z,26.87
2018-08-03T17:06:34.127Z,28.17
2018-08-03T17:09:02.789Z,27.70
2018-08-03T17:11:31.464Z,27.95
2018-08-03T17:14:00.816Z,28.84
2018-08-03T17:16:30.555Z,29.19
2018-08-03T17:18:59.283Z,28.98
2018-08-03T17:21:28.640Z,30.27
2018-08-03T17:23:58.364Z,30.36
2018-08-03T17:26:28.666Z,30.60
2018-08-03T17:28:57.257Z,30.79
2018-08-03T17:31:27.437Z,30.54
2018-08-03T17:33:56.249Z,29.77
2018-08-03T17:36:25.085Z,30.41
2018-08-03T17:38:53.878Z,30.96
2018-08-03T17:41:23.188Z,30.78
2018-08-03T17:43:52.712Z,31.30
2018-08-03T17:46:21.937Z,30.90
2018-08-03T17:48:50.836Z,32.12
2018-08-03T17:51:20.136Z,32.68
2018-08-03T17:53:49.198Z,33.86
2018-08-03T17:56:17.912Z,34.89
2018-08-03T17:58:46.759Z,35.78
2018-08-03T18:01:16.066Z,38.53
2018-08-03T18:03:44.697Z,39.92
2018-08-03T18:06:13.834Z,39.83
2018-08-03T18:08:43.015Z,40.80
2018-08-03T18:11:11.543Z,42.39
2018-08-03T18:13:40.323Z,42.44
2018-08-03T18:16:09.616Z,42.34
2018-08-03T18:18:38.063Z,43.17
2018-08-03T18:21:07.298Z,44.01
2018-08-03T18:23:35.931Z,44.08
2018-08-03T18:26:04.991Z,44.92
2018-08-03T18:28:34.246Z,44.73
2018-08-03T18:31:03.158Z,45.78
2018-08-03T18:33:32.957Z,46.48
2018-08-03T18:36:02.105Z,47.25
2018-08-03T18:38:31.214Z,47.13
2018-08-03T18:41:00.253Z,48.06
2018-08-03T18:43:29.367Z,48.16
2018-08-03T18:45:58.057Z,49.28
2018-08-03T18:48:27.198Z,49.21
2018-08-03T18:50:56.032Z,49.17
2018-08-03T18:53:25.216Z,49.09
2018-08-03T18:55:54.384Z,49.68
2018-08-03T18:58:23.750Z,49.06
2018-08-03T19:00:52.855Z,49.58
2018-08-03T19:03:21.906Z,49.80
2018-08-03T19:05:51.277Z,50.38
2018-08-03T19:08:20.461Z,51.02
2018-08-03T19:10:49.721Z,51.04
2018-08-03T19:13:18.533Z,51.17
2018-08-03T19:15:47.395Z,51.56
2018-08-03T19:18:16.099Z,50.91
2018-08-03T19:20:44.863Z,52.08
2018-08-03T19:23:13.653Z,53.33
2018-08-03T19:25:43.862Z,53.09
2018-08-03T19:28:12.633Z,53.12
2018-08-03T19:30:42.280Z,53.82
2018-08-03T19:33:11.795Z,54.49
2018-08-03T19:35:41.012Z,55.40
2018-08-03T19:38:11.842Z,55.78
2018-08-03T19:40:43.404Z,55.91
2018-08-03T19:43:13.336Z,55.12
2018-08-03T19:45:42.424Z,55.48
2018-08-03T19:48:10.995Z,56.22
2018-08-03T19:50:39.607Z,56.63
2018-08-03T19:53:08.839Z,56.46
2018-08-03T19:55:37.861Z,56.75
2018-08-03T19:58:06.889Z,57.31
2018-08-03T20:00:36.037Z,58.22
2018-08-03T20:03:06.477Z,57.82
2018-08-03T20:05:35.887Z,58.84
2018-08-03T20:08:04.681Z,59.50
2018-08-03T20:10:33.430Z,59.60
2018-08-03T20:13:02.125Z,59.48
2018-08-03T20:15:30.812Z,59.38
2018-08-03T20:17:59.478Z,59.20
2018-08-03T20:20:28.677Z,59.99
2018-08-03T20:22:57.345Z,59.83
2018-08-03T20:25:27.617Z,60.32
2018-08-03T20:27:56.708Z,60.20
2018-08-03T20:30:25.745Z,60.83
2018-08-03T20:32:55.206Z,60.73
2018-08-03T20:35:23.900Z,61.92
2018-08-03T20:37:52.674Z,61.54
2018-08-03T20:40:21.337Z,61.37
2018-08-03T20:42:52.415Z,61.01
2018-08-03T20:45:21.644Z,61.93
2018-08-03T20:47:50.135Z,61.65
2018-08-03T20:50:19.059Z,61.44
2018-08-03T20:52:48.385Z,62.23
2018-08-03T20:55:17.595Z,63.80
2018-08-03T20:57:47.702Z,64.53
2018-08-03T21:00:16.352Z,64.00
2018-08-03T21:02:45.774Z,64.55
2018-08-03T21:05:14.588Z,64.42
2018-08-03T21:07:43.259Z,63.74
2018-08-03T21:10:12.784Z,64.42
2018-08-03T21:12:41.247Z,63.45
2018-08-03T21:15:10.526Z,64.07
2018-08-03T21:17:39.349Z,64.07
2018-08-03T21:20:08.692Z,63.70
2018-08-03T21:22:37.340Z,64.59
2018-08-03T21:25:06.793Z,63.88
2018-08-03T21:27:36.781Z,64.11
2018-08-03T21:30:07.866Z,64.51
2018-08-03T21:32:38.346Z,65.07
2018-08-03T21:35:08.979Z,65.82
2018-08-03T21:37:38.412Z,64.75
2018-08-03T21:40:07.659Z,65.92
2018-08-03T21:42:37.390Z,65.84
2018-08-03T21:45:06.453Z,66.45
2018-08-03T21:47:36.317Z,66.85
2018-08-03T21:50:06.335Z,65.28
2018-08-03T21:52:35.173Z,66.64
2018-08-03T21:55:04.512Z,67.34
2018-08-03T21:57:34.104Z,66.39
2018-08-03T22:00:03.227Z,66.35
2018-08-03T22:02:33.216Z,66.43
2018-08-03T22:05:02.583Z,66.94
2018-08-03T22:07:31.447Z,67.75
2018-08-03T22:10:00.285Z,67.27
2018-08-03T22:12:29.774Z,67.69
2018-08-03T22:14:58.795Z,68.27
2018-08-03T22:17:28.253Z,68.79
2018-08-03T22:20:02.329Z,69.33
2018-08-03T22:22:34.977Z,69.01
2018-08-03T22:25:05.413Z,68.33
2018-08-03T22:27:34.331Z,69.06
2018-08-03T22:30:04.703Z,68.58
2018-08-03T22:32:33.721Z,69.47
2018-08-03T22:35:02.904Z,69.23
2018-08-03T22:37:32.119Z,69.13
2018-08-03T22:40:02.054Z,69.61
2018-08-03T22:42:31.373Z,69.79
2018-08-03T22:45:01.178Z,70.87
2018-08-03T22:47:30.691Z,71.06
2018-08-03T22:49:59.551Z,71.46
2018-08-03T22:52:28.200Z,70.90
2018-08-03T22:54:57.096Z,71.79
2018-08-03T22:57:26.092Z,71.92
2018-08-03T22:59:55.681Z,72.13
2018-08-03T23:02:24.699Z,72.35
2018-08-03T23:04:53.396Z,72.51
2018-08-03T23:07:22.141Z,71.53
2018-08-03T23:09:50.875Z,71.21
2018-08-03T23:12:19.681Z,72.99
2018-08-03T23:14:48.456Z,72.19
2018-08-03T23:17:18.018Z,72.97
2018-08-03T23:19:47.091Z,72.92
2018-08-03T23:22:15.823Z,71.92
2018-08-03T23:24:44.501Z,72.51
2018-08-03T23:27:13.849Z,73.07
2018-08-03T23:29:43.309Z,73.04
2018-08-03T23:32:14.270Z,72.74
2018-08-03T23:34:43.428Z,72.43
2018-08-03T23:37:13.354Z,72.30
2018-08-03T23:39:42.275Z,73.32
2018-08-03T23:42:12.055Z,72.90
2018-08-03T23:44:41.435Z,73.19
2018-08-03T23:47:10.696Z,73.12
2018-08-03T23:49:40.184Z,73.17
2018-08-03T23:52:09.830Z,73.59
2018-08-03T23:54:39.171Z,72.97
2018-08-03T23:57:08.919Z,74.13
2018-08-03T23:59:38.345Z,73.29
